sensor_id;sensor_type;location;lat;lon;timestamp;P1;durP1;ratioP1;P2;durP2;ratioP2
69991;SDS011;57332;51.320;-0.580;2022-08-19T00:00:22;6.68;;;2.42;;
69991;SDS011;57332;51.320;-0.580;2022-08-19T00:02:50;7.25;;;2.30;;
69991;SDS011;57332;51.320;-0.580;2022-08-19T00:05:17;5.85;;;2.40;;
69991;SDS011;57332;51.320;-0.580;2022-08-19T00:07:44;6.40;;;2.35;;
69991;SDS011;57332;51.320;-0.580;2022-08-19T00:10:13;5.65;;;2.58;;
69991;SDS011;57332;51.320;-0.580;2022-08-19T00:12:41;5.07;;;2.80;;
69991;SDS011;57332;51.320;-0.580;2022-08-19T00:15:13;6.20;;;2.92;;
69991;SDS011;57332;51.320;-0.580;2022-08-19T00:17:42;6.88;;;2.83;;
69991;SDS011;57332;51.320;-0.580;2022-08-19T00:20:16;6.70;;;2.58;;
69991;SDS011;57332;51.320;-0.580;2022-08-19T00:22:44;6.97;;;2.60;;
69991;SDS011;57332;51.320;-0.580;2022-08-19T00:25:11;7.10;;;3.13;;
69991;SDS011;57332;51.320;-0.580;2022-08-19T00:27:41;6.20;;;2.40;;
69991;SDS011;57332;51.320;-0.580;2022-08-19T00:30:08;5.75;;;2.28;;
69991;SDS011;57332;51.320;-0.580;2022-08-19T00:32:38;8.13;;;2.38;;
69991;SDS011;57332;51.320;-0.580;2022-08-19T00:35:05;5.97;;;2.20;;
69991;SDS011;57332;51.320;-0.580;2022-08-19T00:37:33;5.63;;;2.55;;
69991;SDS011;57332;51.320;-0.580;2022-08-19T00:40:02;6.20;;;2.70;;
69991;SDS011;57332;51.320;-0.580;2022-08-19T00:42:30;7.18;;;2.33;;
69991;SDS011;57332;51.320;-0.580;2022-08-19T00:44:57;6.63;;;2.50;;
69991;SDS011;57332;51.320;-0.580;2022-08-19T00:47:24;7.20;;;2.50;;
69991;SDS011;57332;51.320;-0.580;2022-08-19T00:49:54;6.00;;;2.42;;
69991;SDS011;57332;51.320;-0.580;2022-08-19T00:52:24;7.60;;;2.60;;
69991;SDS011;57332;51.320;-0.580;2022-08-19T00:54:51;5.88;;;2.45;;
69991;SDS011;57332;51.320;-0.580;2022-08-19T00:57:22;5.88;;;2.53;;
69991;SDS011;57332;51.320;-0.580;2022-08-19T00:59:51;6.68;;;2.70;;
69991;SDS011;57332;51.320;-0.580;2022-08-19T01:02:28;7.55;;;2.50;;
69991;SDS011;57332;51.320;-0.580;2022-08-19T01:04:56;5.47;;;2.30;;
69991;SDS011;57332;51.320;-0.580;2022-08-19T01:07:23;5.18;;;2.30;;
69991;SDS011;57332;51.320;-0.580;2022-08-19T01:09:51;6.20;;;2.08;;
69991;SDS011;57332;51.320;-0.580;2022-08-19T01:12:18;6.07;;;2.28;;
69991;SDS011;57332;51.320;-0.580;2022-08-19T01:14:45;4.75;;;1.90;;
69991;SDS011;57332;51.320;-0.580;2022-08-19T01:17:13;5.78;;;2.13;;
69991;SDS011;57332;51.320;-0.580;2022-08-19T01:19:41;8.00;;;2.42;;
69991;SDS011;57332;51.320;-0.580;2022-08-19T01:22:19;5.40;;;2.33;;
69991;SDS011;57332;51.320;-0.580;2022-08-19T01:24:53;4.47;;;2.08;;
69991;SDS011;57332;51.320;-0.580;2022-08-19T01:27:20;4.47;;;2.05;;
69991;SDS011;57332;51.320;-0.580;2022-08-19T01:29:47;6.28;;;2.30;;
69991;SDS011;57332;51.320;-0.580;2022-08-19T01:32:16;6.40;;;2.10;;
69991;SDS011;57332;51.320;-0.580;2022-08-19T01:34:59;5.65;;;2.30;;
69991;SDS011;57332;51.320;-0.580;2022-08-19T01:37:28;5.88;;;2.00;;
69991;SDS011;57332;51.320;-0.580;2022-08-19T01:39:55;6.15;;;2.03;;
69991;SDS011;57332;51.320;-0.580;2022-08-19T01:42:23;6.18;;;2.05;;
69991;SDS011;57332;51.320;-0.580;2022-08-19T01:44:56;3.92;;;1.92;;
69991;SDS011;57332;51.320;-0.580;2022-08-19T01:47:23;5.15;;;2.22;;
69991;SDS011;57332;51.320;-0.580;2022-08-19T01:49:50;6.32;;;2.10;;
69991;SDS011;57332;51.320;-0.580;2022-08-19T01:52:17;5.05;;;1.98;;
69991;SDS011;57332;51.320;-0.580;2022-08-19T01:54:44;5.57;;;2.08;;
69991;SDS011;57332;51.320;-0.580;2022-08-19T01:57:12;5.32;;;1.90;;
69991;SDS011;57332;51.320;-0.580;2022-08-19T01:59:40;5.30;;;1.85;;
69991;SDS011;57332;51.320;-0.580;2022-08-19T02:02:07;4.57;;;2.00;;
69991;SDS011;57332;51.320;-0.580;2022-08-19T02:04:35;8.23;;;2.10;;
69991;SDS011;57332;51.320;-0.580;2022-08-19T02:07:04;4.65;;;2.00;;
69991;SDS011;57332;51.320;-0.580;2022-08-19T02:09:31;4.80;;;2.00;;
69991;SDS011;57332;51.320;-0.580;2022-08-19T02:11:58;5.85;;;1.70;;
69991;SDS011;57332;51.320;-0.580;2022-08-19T02:14:25;5.68;;;2.15;;
69991;SDS011;57332;51.320;-0.580;2022-08-19T02:16:52;5.10;;;1.67;;
69991;SDS011;57332;51.320;-0.580;2022-08-19T02:19:20;5.55;;;1.90;;
69991;SDS011;57332;51.320;-0.580;2022-08-19T02:21:47;5.00;;;1.92;;
69991;SDS011;57332;51.320;-0.580;2022-08-19T02:24:14;5.22;;;2.10;;
69991;SDS011;57332;51.320;-0.580;2022-08-19T02:26:41;5.85;;;2.03;;
69991;SDS011;57332;51.320;-0.580;2022-08-19T02:29:08;4.10;;;1.67;;
69991;SDS011;57332;51.320;-0.580;2022-08-19T02:31:35;5.78;;;1.95;;
69991;SDS011;57332;51.320;-0.580;2022-08-19T02:34:02;3.47;;;1.88;;
69991;SDS011;57332;51.320;-0.580;2022-08-19T02:36:29;7.05;;;2.10;;
69991;SDS011;57332;51.320;-0.580;2022-08-19T02:38:56;3.35;;;1.70;;
69991;SDS011;57332;51.320;-0.580;2022-08-19T02:41:27;5.72;;;2.22;;
69991;SDS011;57332;51.320;-0.580;2022-08-19T02:46:41;4.53;;;1.75;;
69991;SDS011;57332;51.320;-0.580;2022-08-19T02:49:09;5.60;;;1.90;;
69991;SDS011;57332;51.320;-0.580;2022-08-19T02:51:43;6.28;;;2.10;;
69991;SDS011;57332;51.320;-0.580;2022-08-19T02:54:10;7.45;;;1.95;;
69991;SDS011;57332;51.320;-0.580;2022-08-19T02:56:38;3.63;;;1.73;;
69991;SDS011;57332;51.320;-0.580;2022-08-19T02:59:05;4.45;;;1.80;;
69991;SDS011;57332;51.320;-0.580;2022-08-19T03:01:37;4.32;;;1.73;;
69991;SDS011;57332;51.320;-0.580;2022-08-19T03:04:06;4.30;;;1.65;;
69991;SDS011;57332;51.320;-0.580;2022-08-19T03:06:38;6.40;;;2.03;;
69991;SDS011;57332;51.320;-0.580;2022-08-19T03:09:05;6.10;;;2.13;;
69991;SDS011;57332;51.320;-0.580;2022-08-19T03:11:32;5.35;;;1.95;;
69991;SDS011;57332;51.320;-0.580;2022-08-19T03:14:00;4.43;;;1.77;;
69991;SDS011;57332;51.320;-0.580;2022-08-19T03:16:28;4.70;;;2.10;;
69991;SDS011;57332;51.320;-0.580;2022-08-19T03:18:59;5.90;;;1.88;;
69991;SDS011;57332;51.320;-0.580;2022-08-19T03:21:27;5.65;;;2.00;;
69991;SDS011;57332;51.320;-0.580;2022-08-19T03:23:55;3.63;;;1.75;;
69991;SDS011;57332;51.320;-0.580;2022-08-19T03:26:22;4.10;;;1.90;;
69991;SDS011;57332;51.320;-0.580;2022-08-19T03:28:49;5.35;;;1.95;;
69991;SDS011;57332;51.320;-0.580;2022-08-19T03:31:25;3.75;;;1.63;;
69991;SDS011;57332;51.320;-0.580;2022-08-19T03:34:13;4.05;;;1.65;;
69991;SDS011;57332;51.320;-0.580;2022-08-19T03:36:41;3.97;;;1.58;;
69991;SDS011;57332;51.320;-0.580;2022-08-19T03:39:09;4.80;;;1.77;;
69991;SDS011;57332;51.320;-0.580;2022-08-19T03:41:37;4.32;;;1.70;;
69991;SDS011;57332;51.320;-0.580;2022-08-19T03:44:18;3.90;;;1.70;;
69991;SDS011;57332;51.320;-0.580;2022-08-19T03:46:48;6.00;;;1.80;;
69991;SDS011;57332;51.320;-0.580;2022-08-19T03:49:16;3.17;;;1.58;;
69991;SDS011;57332;51.320;-0.580;2022-08-19T03:51:45;4.00;;;1.52;;
69991;SDS011;57332;51.320;-0.580;2022-08-19T03:54:13;3.15;;;1.63;;
69991;SDS011;57332;51.320;-0.580;2022-08-19T03:56:41;3.83;;;1.60;;
69991;SDS011;57332;51.320;-0.580;2022-08-19T03:59:10;4.78;;;1.85;;
69991;SDS011;57332;51.320;-0.580;2022-08-19T04:01:38;6.90;;;1.88;;
69991;SDS011;57332;51.320;-0.580;2022-08-19T04:04:05;5.50;;;1.67;;
69991;SDS011;57332;51.320;-0.580;2022-08-19T04:06:33;3.80;;;1.80;;
69991;SDS011;57332;51.320;-0.580;2022-08-19T04:09:05;3.53;;;1.77;;
69991;SDS011;57332;51.320;-0.580;2022-08-19T04:11:40;3.88;;;1.75;;
69991;SDS011;57332;51.320;-0.580;2022-08-19T04:14:11;4.97;;;1.90;;
69991;SDS011;57332;51.320;-0.580;2022-08-19T04:16:39;4.70;;;2.13;;
69991;SDS011;57332;51.320;-0.580;2022-08-19T04:19:06;3.28;;;1.55;;
69991;SDS011;57332;51.320;-0.580;2022-08-19T04:21:33;7.53;;;2.00;;
69991;SDS011;57332;51.320;-0.580;2022-08-19T04:24:00;5.15;;;1.83;;
69991;SDS011;57332;51.320;-0.580;2022-08-19T04:26:31;4.68;;;1.60;;
69991;SDS011;57332;51.320;-0.580;2022-08-19T04:29:00;5.57;;;1.80;;
69991;SDS011;57332;51.320;-0.580;2022-08-19T04:31:28;3.15;;;1.60;;
69991;SDS011;57332;51.320;-0.580;2022-08-19T04:33:56;2.40;;;1.50;;
69991;SDS011;57332;51.320;-0.580;2022-08-19T04:36:25;2.40;;;1.27;;
69991;SDS011;57332;51.320;-0.580;2022-08-19T04:38:53;2.80;;;1.40;;
69991;SDS011;57332;51.320;-0.580;2022-08-19T04:41:21;2.63;;;1.40;;
69991;SDS011;57332;51.320;-0.580;2022-08-19T04:44:06;3.38;;;1.35;;
69991;SDS011;57332;51.320;-0.580;2022-08-19T04:46:33;3.10;;;1.05;;
69991;SDS011;57332;51.320;-0.580;2022-08-19T04:49:17;3.72;;;1.10;;
69991;SDS011;57332;51.320;-0.580;2022-08-19T04:51:45;2.33;;;1.30;;
69991;SDS011;57332;51.320;-0.580;2022-08-19T04:54:12;2.58;;;1.30;;
69991;SDS011;57332;51.320;-0.580;2022-08-19T04:56:39;2.55;;;0.90;;
69991;SDS011;57332;51.320;-0.580;2022-08-19T04:59:07;2.40;;;1.00;;
69991;SDS011;57332;51.320;-0.580;2022-08-19T05:01:35;2.65;;;1.10;;
69991;SDS011;57332;51.320;-0.580;2022-08-19T05:04:04;2.70;;;1.10;;
69991;SDS011;57332;51.320;-0.580;2022-08-19T05:06:31;1.30;;;0.90;;
69991;SDS011;57332;51.320;-0.580;2022-08-19T05:09:04;1.85;;;0.90;;
69991;SDS011;57332;51.320;-0.580;2022-08-19T05:11:33;1.60;;;0.70;;
69991;SDS011;57332;51.320;-0.580;2022-08-19T05:14:01;2.80;;;0.80;;
69991;SDS011;57332;51.320;-0.580;2022-08-19T05:16:28;2.17;;;1.00;;
69991;SDS011;57332;51.320;-0.580;2022-08-19T05:18:55;1.33;;;0.60;;
69991;SDS011;57332;51.320;-0.580;2022-08-19T05:21:41;1.33;;;0.73;;
69991;SDS011;57332;51.320;-0.580;2022-08-19T05:24:27;0.93;;;0.60;;
69991;SDS011;57332;51.320;-0.580;2022-08-19T05:26:56;1.42;;;0.70;;
69991;SDS011;57332;51.320;-0.580;2022-08-19T05:29:24;0.88;;;0.60;;
69991;SDS011;57332;51.320;-0.580;2022-08-19T05:31:57;1.80;;;0.60;;
69991;SDS011;57332;51.320;-0.580;2022-08-19T05:34:25;1.67;;;0.60;;
69991;SDS011;57332;51.320;-0.580;2022-08-19T05:36:54;0.70;;;0.50;;
69991;SDS011;57332;51.320;-0.580;2022-08-19T05:39:24;0.47;;;0.40;;
69991;SDS011;57332;51.320;-0.580;2022-08-19T05:41:53;1.15;;;0.50;;
69991;SDS011;57332;51.320;-0.580;2022-08-19T05:44:21;2.20;;;0.50;;
69991;SDS011;57332;51.320;-0.580;2022-08-19T05:46:48;1.40;;;0.70;;
69991;SDS011;57332;51.320;-0.580;2022-08-19T05:49:15;2.08;;;0.70;;
69991;SDS011;57332;51.320;-0.580;2022-08-19T05:51:42;1.27;;;0.60;;
69991;SDS011;57332;51.320;-0.580;2022-08-19T05:54:09;2.17;;;0.60;;
69991;SDS011;57332;51.320;-0.580;2022-08-19T05:56:40;0.73;;;0.50;;
69991;SDS011;57332;51.320;-0.580;2022-08-19T05:59:08;1.23;;;0.50;;
69991;SDS011;57332;51.320;-0.580;2022-08-19T06:01:37;1.58;;;0.50;;
69991;SDS011;57332;51.320;-0.580;2022-08-19T06:04:05;2.20;;;0.70;;
69991;SDS011;57332;51.320;-0.580;2022-08-19T06:06:34;1.30;;;0.57;;
69991;SDS011;57332;51.320;-0.580;2022-08-19T06:09:02;2.45;;;0.70;;
69991;SDS011;57332;51.320;-0.580;2022-08-19T06:14:04;2.35;;;0.57;;
69991;SDS011;57332;51.320;-0.580;2022-08-19T06:16:31;2.20;;;0.60;;
69991;SDS011;57332;51.320;-0.580;2022-08-19T06:19:02;0.73;;;0.60;;
69991;SDS011;57332;51.320;-0.580;2022-08-19T06:21:30;1.33;;;0.70;;
69991;SDS011;57332;51.320;-0.580;2022-08-19T06:23:57;1.65;;;0.80;;
69991;SDS011;57332;51.320;-0.580;2022-08-19T06:26:24;1.60;;;0.70;;
69991;SDS011;57332;51.320;-0.580;2022-08-19T06:28:53;2.13;;;0.90;;
69991;SDS011;57332;51.320;-0.580;2022-08-19T06:31:21;2.45;;;0.80;;
69991;SDS011;57332;51.320;-0.580;2022-08-19T06:33:48;2.03;;;0.73;;
69991;SDS011;57332;51.320;-0.580;2022-08-19T06:36:26;1.00;;;0.70;;
69991;SDS011;57332;51.320;-0.580;2022-08-19T06:38:58;0.88;;;0.63;;
69991;SDS011;57332;51.320;-0.580;2022-08-19T06:41:25;1.92;;;0.80;;
69991;SDS011;57332;51.320;-0.580;2022-08-19T06:43:53;2.45;;;0.70;;
69991;SDS011;57332;51.320;-0.580;2022-08-19T06:46:22;1.23;;;0.70;;
69991;SDS011;57332;51.320;-0.580;2022-08-19T06:48:49;3.05;;;0.90;;
69991;SDS011;57332;51.320;-0.580;2022-08-19T06:51:17;7.10;;;1.65;;
69991;SDS011;57332;51.320;-0.580;2022-08-19T06:53:47;1.38;;;0.70;;
69991;SDS011;57332;51.320;-0.580;2022-08-19T06:56:21;1.98;;;0.65;;
69991;SDS011;57332;51.320;-0.580;2022-08-19T06:58:48;1.48;;;0.63;;
69991;SDS011;57332;51.320;-0.580;2022-08-19T07:01:19;1.60;;;0.68;;
69991;SDS011;57332;51.320;-0.580;2022-08-19T07:03:46;0.93;;;0.63;;
69991;SDS011;57332;51.320;-0.580;2022-08-19T07:06:14;1.50;;;1.05;;
69991;SDS011;57332;51.320;-0.580;2022-08-19T07:09:05;1.52;;;0.68;;
69991;SDS011;57332;51.320;-0.580;2022-08-19T07:11:32;1.45;;;0.70;;
69991;SDS011;57332;51.320;-0.580;2022-08-19T07:14:00;1.90;;;0.65;;
69991;SDS011;57332;51.320;-0.580;2022-08-19T07:16:27;1.67;;;0.70;;
69991;SDS011;57332;51.320;-0.580;2022-08-19T07:18:55;1.95;;;0.88;;
69991;SDS011;57332;51.320;-0.580;2022-08-19T07:21:25;2.65;;;0.80;;
69991;SDS011;57332;51.320;-0.580;2022-08-19T07:23:55;1.20;;;0.57;;
69991;SDS011;57332;51.320;-0.580;2022-08-19T07:26:24;3.53;;;0.80;;
69991;SDS011;57332;51.320;-0.580;2022-08-19T07:28:53;1.17;;;0.70;;
69991;SDS011;57332;51.320;-0.580;2022-08-19T07:31:22;1.83;;;0.80;;
69991;SDS011;57332;51.320;-0.580;2022-08-19T07:33:56;2.70;;;0.70;;
69991;SDS011;57332;51.320;-0.580;2022-08-19T07:36:24;2.10;;;0.80;;
69991;SDS011;57332;51.320;-0.580;2022-08-19T07:38:52;3.20;;;0.80;;
69991;SDS011;57332;51.320;-0.580;2022-08-19T07:41:22;2.97;;;0.80;;
69991;SDS011;57332;51.320;-0.580;2022-08-19T07:43:50;1.80;;;0.77;;
69991;SDS011;57332;51.320;-0.580;2022-08-19T07:46:18;1.00;;;0.70;;
69991;SDS011;57332;51.320;-0.580;2022-08-19T07:48:48;1.70;;;0.70;;
69991;SDS011;57332;51.320;-0.580;2022-08-19T07:51:17;2.35;;;0.75;;
69991;SDS011;57332;51.320;-0.580;2022-08-19T07:54:02;1.83;;;0.60;;
69991;SDS011;57332;51.320;-0.580;2022-08-19T07:56:29;3.05;;;0.90;;
69991;SDS011;57332;51.320;-0.580;2022-08-19T07:58:56;2.95;;;1.00;;
69991;SDS011;57332;51.320;-0.580;2022-08-19T08:01:24;3.10;;;1.00;;
69991;SDS011;57332;51.320;-0.580;2022-08-19T08:03:52;3.90;;;0.95;;
69991;SDS011;57332;51.320;-0.580;2022-08-19T08:06:37;5.53;;;1.20;;
69991;SDS011;57332;51.320;-0.580;2022-08-19T08:09:25;4.95;;;0.90;;
69991;SDS011;57332;51.320;-0.580;2022-08-19T08:11:55;2.83;;;1.00;;
69991;SDS011;57332;51.320;-0.580;2022-08-19T08:14:32;3.60;;;1.02;;
69991;SDS011;57332;51.320;-0.580;2022-08-19T08:17:01;6.28;;;1.02;;
69991;SDS011;57332;51.320;-0.580;2022-08-19T08:19:36;2.65;;;0.90;;
69991;SDS011;57332;51.320;-0.580;2022-08-19T08:22:03;4.43;;;1.10;;
69991;SDS011;57332;51.320;-0.580;2022-08-19T08:24:33;4.30;;;1.20;;
69991;SDS011;57332;51.320;-0.580;2022-08-19T08:27:00;4.30;;;1.10;;
69991;SDS011;57332;51.320;-0.580;2022-08-19T08:29:28;1.85;;;0.80;;
69991;SDS011;57332;51.320;-0.580;2022-08-19T08:32:00;3.58;;;1.10;;
69991;SDS011;57332;51.320;-0.580;2022-08-19T08:34:28;4.50;;;0.90;;
69991;SDS011;57332;51.320;-0.580;2022-08-19T08:36:55;2.90;;;0.98;;
69991;SDS011;57332;51.320;-0.580;2022-08-19T08:39:22;2.75;;;0.70;;
69991;SDS011;57332;51.320;-0.580;2022-08-19T08:44:43;2.03;;;0.80;;
69991;SDS011;57332;51.320;-0.580;2022-08-19T08:47:19;3.40;;;0.88;;
69991;SDS011;57332;51.320;-0.580;2022-08-19T08:52:21;3.60;;;0.80;;
69991;SDS011;57332;51.320;-0.580;2022-08-19T08:54:58;3.83;;;1.02;;
69991;SDS011;57332;51.320;-0.580;2022-08-19T08:57:31;2.58;;;0.73;;
69991;SDS011;57332;51.320;-0.580;2022-08-19T09:00:08;4.32;;;0.90;;
69991;SDS011;57332;51.320;-0.580;2022-08-19T09:02:42;4.78;;;1.10;;
69991;SDS011;57332;51.320;-0.580;2022-08-19T09:05:09;3.72;;;0.90;;
69991;SDS011;57332;51.320;-0.580;2022-08-19T09:07:50;3.33;;;0.93;;
69991;SDS011;57332;51.320;-0.580;2022-08-19T09:10:28;3.97;;;1.13;;
69991;SDS011;57332;51.320;-0.580;2022-08-19T09:15:40;3.33;;;1.10;;
69991;SDS011;57332;51.320;-0.580;2022-08-19T09:18:09;3.03;;;1.10;;
69991;SDS011;57332;51.320;-0.580;2022-08-19T09:20:45;3.10;;;1.00;;
69991;SDS011;57332;51.320;-0.580;2022-08-19T09:23:13;4.35;;;1.30;;
69991;SDS011;57332;51.320;-0.580;2022-08-19T09:25:40;3.75;;;1.00;;
69991;SDS011;57332;51.320;-0.580;2022-08-19T09:28:08;4.15;;;1.05;;
69991;SDS011;57332;51.320;-0.580;2022-08-19T09:30:48;3.80;;;1.30;;
69991;SDS011;57332;51.320;-0.580;2022-08-19T09:33:18;4.80;;;1.30;;
69991;SDS011;57332;51.320;-0.580;2022-08-19T09:35:46;4.75;;;1.25;;
69991;SDS011;57332;51.320;-0.580;2022-08-19T09:38:20;3.55;;;1.33;;
69991;SDS011;57332;51.320;-0.580;2022-08-19T09:40:47;3.35;;;0.95;;
69991;SDS011;57332;51.320;-0.580;2022-08-19T09:43:14;4.47;;;1.27;;
69991;SDS011;57332;51.320;-0.580;2022-08-19T09:45:59;4.13;;;1.38;;
69991;SDS011;57332;51.320;-0.580;2022-08-19T09:48:27;4.28;;;1.00;;
69991;SDS011;57332;51.320;-0.580;2022-08-19T09:50:55;3.55;;;1.00;;
69991;SDS011;57332;51.320;-0.580;2022-08-19T09:53:30;5.25;;;1.40;;
69991;SDS011;57332;51.320;-0.580;2022-08-19T09:55:59;3.65;;;1.10;;
69991;SDS011;57332;51.320;-0.580;2022-08-19T09:58:29;2.80;;;1.00;;
69991;SDS011;57332;51.320;-0.580;2022-08-19T10:00:57;5.97;;;1.30;;
69991;SDS011;57332;51.320;-0.580;2022-08-19T10:03:25;6.55;;;1.50;;
69991;SDS011;57332;51.320;-0.580;2022-08-19T10:05:56;4.93;;;1.50;;
69991;SDS011;57332;51.320;-0.580;2022-08-19T10:08:26;6.70;;;1.77;;
69991;SDS011;57332;51.320;-0.580;2022-08-19T10:10:54;6.30;;;1.65;;
69991;SDS011;57332;51.320;-0.580;2022-08-19T10:13:22;7.53;;;1.77;;
69991;SDS011;57332;51.320;-0.580;2022-08-19T10:15:52;4.03;;;1.45;;
69991;SDS011;57332;51.320;-0.580;2022-08-19T10:18:21;7.47;;;1.83;;
69991;SDS011;57332;51.320;-0.580;2022-08-19T10:20:48;3.40;;;1.60;;
69991;SDS011;57332;51.320;-0.580;2022-08-19T10:23:18;5.25;;;1.83;;
69991;SDS011;57332;51.320;-0.580;2022-08-19T10:25:46;6.30;;;1.85;;
69991;SDS011;57332;51.320;-0.580;2022-08-19T10:28:14;4.57;;;1.85;;
69991;SDS011;57332;51.320;-0.580;2022-08-19T10:30:45;5.88;;;1.92;;
69991;SDS011;57332;51.320;-0.580;2022-08-19T10:33:13;5.57;;;1.70;;
69991;SDS011;57332;51.320;-0.580;2022-08-19T10:36:06;5.93;;;2.00;;
69991;SDS011;57332;51.320;-0.580;2022-08-19T10:38:34;6.30;;;1.85;;
69991;SDS011;57332;51.320;-0.580;2022-08-19T10:41:12;3.63;;;1.90;;
69991;SDS011;57332;51.320;-0.580;2022-08-19T10:43:39;5.93;;;1.77;;
69991;SDS011;57332;51.320;-0.580;2022-08-19T10:46:10;6.78;;;2.50;;
69991;SDS011;57332;51.320;-0.580;2022-08-19T10:48:42;5.68;;;1.70;;
69991;SDS011;57332;51.320;-0.580;2022-08-19T10:51:10;8.15;;;2.10;;
69991;SDS011;57332;51.320;-0.580;2022-08-19T10:54:00;5.72;;;1.65;;
69991;SDS011;57332;51.320;-0.580;2022-08-19T10:56:32;3.42;;;1.77;;
69991;SDS011;57332;51.320;-0.580;2022-08-19T10:59:20;4.55;;;1.52;;
69991;SDS011;57332;51.320;-0.580;2022-08-19T11:01:52;3.90;;;1.63;;
69991;SDS011;57332;51.320;-0.580;2022-08-19T11:04:22;4.53;;;1.30;;
69991;SDS011;57332;51.320;-0.580;2022-08-19T11:06:55;5.53;;;1.65;;
69991;SDS011;57332;51.320;-0.580;2022-08-19T11:09:24;5.38;;;1.50;;
69991;SDS011;57332;51.320;-0.580;2022-08-19T11:12:02;4.38;;;1.42;;
69991;SDS011;57332;51.320;-0.580;2022-08-19T11:14:30;5.80;;;1.52;;
69991;SDS011;57332;51.320;-0.580;2022-08-19T11:17:00;5.47;;;1.38;;
69991;SDS011;57332;51.320;-0.580;2022-08-19T11:19:27;5.50;;;1.35;;
69991;SDS011;57332;51.320;-0.580;2022-08-19T11:21:54;2.78;;;1.20;;
69991;SDS011;57332;51.320;-0.580;2022-08-19T11:24:25;4.85;;;1.25;;
69991;SDS011;57332;51.320;-0.580;2022-08-19T11:26:54;4.72;;;1.15;;
69991;SDS011;57332;51.320;-0.580;2022-08-19T11:29:26;4.93;;;1.35;;
69991;SDS011;57332;51.320;-0.580;2022-08-19T11:31:54;5.63;;;1.73;;
69991;SDS011;57332;51.320;-0.580;2022-08-19T11:34:23;5.75;;;1.27;;
69991;SDS011;57332;51.320;-0.580;2022-08-19T11:36:53;3.45;;;1.30;;
69991;SDS011;57332;51.320;-0.580;2022-08-19T11:39:23;4.93;;;1.33;;
69991;SDS011;57332;51.320;-0.580;2022-08-19T11:41:51;4.10;;;1.30;;
69991;SDS011;57332;51.320;-0.580;2022-08-19T11:44:18;4.28;;;1.20;;
69991;SDS011;57332;51.320;-0.580;2022-08-19T11:46:46;3.25;;;1.13;;
69991;SDS011;57332;51.320;-0.580;2022-08-19T11:49:14;4.35;;;1.50;;
69991;SDS011;57332;51.320;-0.580;2022-08-19T11:51:55;7.05;;;1.58;;
69991;SDS011;57332;51.320;-0.580;2022-08-19T11:54:24;6.82;;;1.20;;
69991;SDS011;57332;51.320;-0.580;2022-08-19T11:56:52;4.38;;;1.23;;
69991;SDS011;57332;51.320;-0.580;2022-08-19T11:59:22;7.15;;;1.27;;
69991;SDS011;57332;51.320;-0.580;2022-08-19T12:01:50;3.15;;;1.10;;
69991;SDS011;57332;51.320;-0.580;2022-08-19T12:04:20;3.85;;;1.30;;
69991;SDS011;57332;51.320;-0.580;2022-08-19T12:06:47;4.75;;;1.20;;
69991;SDS011;57332;51.320;-0.580;2022-08-19T12:09:17;5.38;;;1.02;;
69991;SDS011;57332;51.320;-0.580;2022-08-19T12:11:44;4.90;;;1.20;;
69991;SDS011;57332;51.320;-0.580;2022-08-19T12:14:12;4.47;;;1.13;;
69991;SDS011;57332;51.320;-0.580;2022-08-19T12:16:43;5.72;;;1.20;;
69991;SDS011;57332;51.320;-0.580;2022-08-19T12:19:17;4.35;;;1.15;;
69991;SDS011;57332;51.320;-0.580;2022-08-19T12:21:48;4.20;;;1.40;;
69991;SDS011;57332;51.320;-0.580;2022-08-19T12:24:16;4.97;;;1.60;;
69991;SDS011;57332;51.320;-0.580;2022-08-19T12:26:50;4.10;;;1.30;;
69991;SDS011;57332;51.320;-0.580;2022-08-19T12:29:19;3.80;;;1.20;;
69991;SDS011;57332;51.320;-0.580;2022-08-19T12:31:50;4.95;;;1.30;;
69991;SDS011;57332;51.320;-0.580;2022-08-19T12:34:17;7.07;;;1.60;;
69991;SDS011;57332;51.320;-0.580;2022-08-19T12:36:46;5.60;;;1.40;;
69991;SDS011;57332;51.320;-0.580;2022-08-19T12:39:16;4.38;;;1.27;;
69991;SDS011;57332;51.320;-0.580;2022-08-19T12:41:48;5.90;;;1.33;;
69991;SDS011;57332;51.320;-0.580;2022-08-19T12:44:21;5.55;;;1.38;;
69991;SDS011;57332;51.320;-0.580;2022-08-19T12:46:56;5.65;;;1.30;;
69991;SDS011;57332;51.320;-0.580;2022-08-19T12:49:23;4.45;;;1.13;;
69991;SDS011;57332;51.320;-0.580;2022-08-19T12:52:16;6.00;;;1.20;;
69991;SDS011;57332;51.320;-0.580;2022-08-19T12:54:57;5.22;;;1.10;;
69991;SDS011;57332;51.320;-0.580;2022-08-19T12:57:25;4.22;;;1.02;;
69991;SDS011;57332;51.320;-0.580;2022-08-19T12:59:59;4.00;;;1.30;;
69991;SDS011;57332;51.320;-0.580;2022-08-19T13:02:31;4.65;;;1.05;;
69991;SDS011;57332;51.320;-0.580;2022-08-19T13:05:05;3.60;;;1.15;;
69991;SDS011;57332;51.320;-0.580;2022-08-19T13:07:33;4.05;;;1.27;;
69991;SDS011;57332;51.320;-0.580;2022-08-19T13:10:01;4.25;;;1.30;;
69991;SDS011;57332;51.320;-0.580;2022-08-19T13:12:28;4.18;;;0.90;;
69991;SDS011;57332;51.320;-0.580;2022-08-19T13:14:55;4.18;;;1.05;;
69991;SDS011;57332;51.320;-0.580;2022-08-19T13:17:25;4.32;;;1.00;;
69991;SDS011;57332;51.320;-0.580;2022-08-19T13:20:01;7.03;;;1.10;;
69991;SDS011;57332;51.320;-0.580;2022-08-19T13:22:29;5.88;;;1.25;;
69991;SDS011;57332;51.320;-0.580;2022-08-19T13:24:56;4.50;;;1.10;;
69991;SDS011;57332;51.320;-0.580;2022-08-19T13:27:23;3.28;;;0.93;;
69991;SDS011;57332;51.320;-0.580;2022-08-19T13:29:50;4.15;;;1.02;;
69991;SDS011;57332;51.320;-0.580;2022-08-19T13:32:35;4.05;;;0.95;;
69991;SDS011;57332;51.320;-0.580;2022-08-19T13:35:21;4.85;;;1.13;;
69991;SDS011;57332;51.320;-0.580;2022-08-19T13:37:48;2.63;;;0.93;;
69991;SDS011;57332;51.320;-0.580;2022-08-19T13:40:16;8.00;;;1.23;;
69991;SDS011;57332;51.320;-0.580;2022-08-19T13:42:46;2.78;;;0.85;;
69991;SDS011;57332;51.320;-0.580;2022-08-19T13:45:14;4.13;;;1.10;;
69991;SDS011;57332;51.320;-0.580;2022-08-19T13:47:41;6.03;;;1.00;;
69991;SDS011;57332;51.320;-0.580;2022-08-19T13:50:12;4.90;;;1.00;;
69991;SDS011;57332;51.320;-0.580;2022-08-19T13:52:42;5.20;;;1.13;;
69991;SDS011;57332;51.320;-0.580;2022-08-19T13:55:11;5.15;;;1.08;;
69991;SDS011;57332;51.320;-0.580;2022-08-19T13:57:54;5.43;;;1.30;;
69991;SDS011;57332;51.320;-0.580;2022-08-19T14:00:23;5.22;;;1.00;;
69991;SDS011;57332;51.320;-0.580;2022-08-19T14:02:52;4.30;;;1.00;;
69991;SDS011;57332;51.320;-0.580;2022-08-19T14:05:19;4.57;;;1.23;;
69991;SDS011;57332;51.320;-0.580;2022-08-19T14:07:47;6.57;;;1.30;;
69991;SDS011;57332;51.320;-0.580;2022-08-19T14:10:15;2.30;;;1.00;;
69991;SDS011;57332;51.320;-0.580;2022-08-19T14:12:43;2.97;;;0.93;;
69991;SDS011;57332;51.320;-0.580;2022-08-19T14:15:11;4.03;;;1.10;;
69991;SDS011;57332;51.320;-0.580;2022-08-19T14:17:39;3.42;;;1.00;;
69991;SDS011;57332;51.320;-0.580;2022-08-19T14:20:07;6.13;;;1.20;;
69991;SDS011;57332;51.320;-0.580;2022-08-19T14:22:37;4.93;;;0.98;;
69991;SDS011;57332;51.320;-0.580;2022-08-19T14:25:05;3.92;;;0.90;;
69991;SDS011;57332;51.320;-0.580;2022-08-19T14:27:36;3.92;;;1.02;;
69991;SDS011;57332;51.320;-0.580;2022-08-19T14:30:04;3.40;;;1.05;;
69991;SDS011;57332;51.320;-0.580;2022-08-19T14:32:31;4.68;;;1.17;;
69991;SDS011;57332;51.320;-0.580;2022-08-19T14:34:58;3.15;;;1.05;;
69991;SDS011;57332;51.320;-0.580;2022-08-19T14:37:25;2.88;;;1.20;;
69991;SDS011;57332;51.320;-0.580;2022-08-19T14:39:54;4.82;;;1.23;;
69991;SDS011;57332;51.320;-0.580;2022-08-19T14:42:21;5.38;;;1.58;;
69991;SDS011;57332;51.320;-0.580;2022-08-19T14:44:50;5.15;;;1.40;;
69991;SDS011;57332;51.320;-0.580;2022-08-19T14:47:20;5.78;;;1.27;;
69991;SDS011;57332;51.320;-0.580;2022-08-19T14:49:48;3.90;;;1.05;;
69991;SDS011;57332;51.320;-0.580;2022-08-19T14:52:20;4.13;;;1.23;;
69991;SDS011;57332;51.320;-0.580;2022-08-19T14:54:47;3.75;;;1.20;;
69991;SDS011;57332;51.320;-0.580;2022-08-19T14:57:17;4.32;;;1.30;;
69991;SDS011;57332;51.320;-0.580;2022-08-19T14:59:43;2.70;;;1.00;;
69991;SDS011;57332;51.320;-0.580;2022-08-19T15:02:11;2.80;;;1.05;;